| Date | Time | Temp. (oF) | Dew Point (oF) | Rel. Hum. (%) | Press. (in.) | Wind Dir. | Wind Speed (mph) | Hourly Rainfall (in.) |
|
|---|---|---|---|---|---|---|---|---|---|
| 1 | miss | miss | miss | miss | miss | miss | miss | miss | |
| 2 | 03/12 | 23:00 | 30 | 20 | 68 | 30.58 | NNE | 0 | 0.00 |
| 3 | 03/12 | 22:00 | 32 | 19 | 59 | 30.57 | S | 0 | 0.00 |
| 4 | 03/12 | 21:00 | 35 | 15 | 45 | 30.55 | S | 0 | 0.00 |
| 5 | 03/12 | 20:00 | 38 | 13 | 37 | 30.54 | NE | 0 | 0.00 |
| 6 | 03/12 | 19:00 | 43 | 11 | 27 | 30.52 | NNW | 0 | 0.00 |
| 7 | 03/12 | 18:00 | 45 | 12 | 27 | 30.49 | N | 4 | 0.00 |
| 8 | 03/12 | 17:00 | 47 | 10 | 23 | 30.47 | NNE | 10 | 0.00 |
| 9 | 03/12 | 16:00 | 48 | 11 | 23 | 30.46 | NNW | 11 | 0.00 |
| 10 | 03/12 | 15:00 | 47 | 12 | 25 | 30.48 | N | 13 | 0.00 |
| 11 | 03/12 | 14:00 | 47 | 16 | 30 | 30.49 | NNW | 6 | 0.00 |
| 12 | 03/12 | 13:00 | 46 | 15 | 29 | 30.51 | WNW | 7 | 0.00 |
| 13 | 03/12 | 12:00 | 45 | 16 | 32 | 30.50 | NNW | 14 | 0.00 |
| 14 | 03/12 | 11:00 | 43 | 17 | 35 | 30.48 | N | 12 | 0.00 |
| 15 | 03/12 | 10:00 | 43 | 20 | 40 | 30.48 | N | 11 | 0.00 |
| 16 | 03/12 | 09:00 | 40 | 18 | 42 | 30.45 | NNE | 10 | 0.00 |
| 17 | miss | miss | miss | miss | miss | miss | miss | miss | |
| 18 | 03/10 | 16:05 | 44 | 42 | 94 | 30.07 | ESE | 3 | 0.01 |
| 19 | miss | miss | miss | miss | miss | miss | miss | miss | |
| 20 | 03/10 | 16:03 | 44 | 42 | 94 | 30.07 | ESE | 4 | 0.01 |
| 21 | miss | miss | miss | miss | miss | miss | miss | miss | |
| 22 | 03/10 | 16:01 | 44 | 42 | 94 | 30.07 | E | 2 | 0.01 |
| 23 | miss | miss | miss | miss | miss | miss | miss | miss | |
| 24 | 03/10 | 15:59 | 44 | 42 | 94 | 30.07 | ESE | 0 | 0.05 |
| 25 | miss | miss | miss | miss | miss | miss | miss | miss | |
| 26 | 03/10 | 15:58 | 44 | 42 | 94 | 30.07 | SE | 2 | 0.05 |
| 27 | miss | miss | miss | miss | miss | miss | miss | miss | |
| 28 | 03/10 | 15:58 | 44 | 42 | 94 | 30.07 | SE | 2 | 0.05 |
| 29 | miss | miss | miss | miss | miss | miss | miss | miss | |
| 30 | 03/10 | 15:58 | 44 | 42 | 94 | 30.07 | SE | 2 | 0.05 |
| 31 | miss | miss | miss | miss | miss | miss | miss | miss | |
| 32 | 03/10 | 15:58 | 44 | 42 | 94 | 30.07 | SE | 2 | 0.05 |
| 33 | 03/10 | 15:58 | 44 | 42 | 94 | 30.07 | SE | 2 | 0.05 |
| 34 | 03/10 | 15:00 | 46 | 44 | 93 | 30.09 | SSE | 0 | 0.06 |
| 35 | 03/10 | 14:00 | 47 | 43 | 89 | 30.12 | S | 3 | 0.02 |
| 36 | 03/10 | 13:00 | 50 | 42 | 75 | 30.15 | SSE | 0 | 0.00 |
| 37 | 03/10 | 12:00 | 50 | 39 | 67 | 30.17 | SSE | 4 | 0.00 |
| 38 | 03/10 | 11:00 | 49 | 38 | 66 | 30.19 | ESE | 3 | 0.00 |
| 39 | 03/10 | 10:00 | 45 | 36 | 71 | 30.22 | ENE | 2 | 0.00 |
| 40 | 03/10 | 09:00 | 37 | 35 | 95 | 30.24 | S | 0 | 0.00 |
| 41 | 03/10 | 08:00 | 32 | 31 | 97 | 30.25 | S | 0 | 0.00 |
| 42 | 03/10 | 07:00 | 28 | 27 | 97 | 30.25 | ESE | 0 | 0.00 |
| 43 | 03/10 | 06:00 | 29 | 28 | 97 | 30.26 | NNE | 0 | 0.00 |
| 44 | 03/10 | 05:00 | 29 | 28 | 97 | 30.24 | ESE | 0 | 0.00 |
| 45 | 03/10 | 04:00 | 29 | 28 | 97 | 30.23 | N | 0 | 0.00 |
| 46 | 03/10 | 03:00 | 29 | 27 | 95 | 30.22 | S | 0 | 0.00 |
| 47 | 03/10 | 02:00 | 30 | 28 | 94 | 30.24 | NNE | 0 | 0.00 |
| 48 | 03/10 | 01:00 | 32 | 29 | 92 | 30.25 | NE | 0 | 0.00 |
| 49 | 03/10 | 00:00 | 33 | 30 | 90 | 30.24 | S | 0 | 0.00 |
| 50 | 03/09 | 23:00 | 34 | 30 | 86 | 30.24 | ESE | 0 | 0.00 |
| 51 | 03/09 | 22:00 | 36 | 31 | 83 | 30.22 | NNE | 0 | 0.00 |
| 52 | 03/09 | 21:00 | 37 | 31 | 81 | 30.21 | S | 0 | 0.00 |
| 53 | 03/09 | 20:00 | 42 | 32 | 68 | 30.20 | N | 0 | 0.00 |
| 54 | 03/09 | 19:00 | 45 | 31 | 60 | 30.18 | S | 0 | 0.00 |
| 55 | 03/09 | 18:00 | 50 | 32 | 51 | 30.15 | SSE | 0 | 0.00 |
| 56 | 03/09 | 17:00 | 53 | 33 | 47 | 30.13 | WNW | 3 | 0.00 |
| 57 | 03/09 | 16:00 | 53 | 32 | 46 | 30.12 | N | 5 | 0.00 |
| 58 | 03/09 | 15:00 | 53 | 32 | 46 | 30.13 | W | 7 | 0.00 |
| 59 | 03/09 | 14:00 | 52 | 33 | 49 | 30.13 | SE | 4 | 0.00 |
| 60 | 03/09 | 13:00 | 51 | 33 | 51 | 30.16 | WNW | 3 | 0.00 |
| 61 | 03/09 | 12:00 | 50 | 35 | 58 | 30.18 | W | 3 | 0.00 |
| 62 | 03/09 | 11:00 | 48 | 33 | 57 | 30.19 | WNW | 3 | 0.00 |
| 63 | 03/09 | 10:00 | 47 | 33 | 59 | 30.19 | SSW | 3 | 0.00 |
| 64 | 03/09 | 09:00 | 41 | 33 | 73 | 30.20 | NE | 0 | 0.00 |
| 65 | 03/09 | 08:00 | 36 | 31 | 84 | 30.19 | NE | 0 | 0.00 |
| 66 | 03/09 | 07:00 | 33 | 29 | 88 | 30.17 | SSE | 0 | 0.00 |
| 67 | 03/09 | 06:00 | 34 | 29 | 85 | 30.16 | S | 0 | 0.00 |